Time;durP1;ratioP1;P1;durP2;ratioP2;P2;SDS_P1;SDS_P2;PMS_P1;PMS_P2;Temp;Humidity;BMP_temperature;BMP_pressure;BME280_temperature;BME280_humidity;BME280_pressure;Samples;Min_cycle;Max_cycle;Signal;HPM_P1;HPM_P2
2021/11/20 00:01:05;;;;;;;8.27;4.63;;;19.30;60.80;;;;;;4994426;28;20466;-57
2021/11/20 00:03:43;;;;;;;10.65;4.75;;;19.40;60.90;;;;;;4999957;28;20042;-58
2021/11/20 00:06:20;;;;;;;12.02;5.38;;;19.40;60.90;;;;;;5000734;28;20140;-57
2021/11/20 00:08:54;;;;;;;;;;;19.40;60.90;;;;;;5004719;28;20053;-58
2021/11/20 00:11:30;;;;;;;9.23;4.38;;;19.40;60.90;;;;;;5002652;28;19929;-56
2021/11/20 00:14:00;;;;;;;9.50;4.85;;;19.40;60.90;;;;;;5003228;28;20128;-57
2021/11/20 00:16:34;;;;;;;8.65;4.50;;;19.40;60.90;;;;;;5006619;28;20042;-57
2021/11/20 00:19:01;;;;;;;10.23;5.25;;;19.30;60.90;;;;;;5001312;28;20555;-57
2021/11/20 00:21:36;;;;;;;8.98;5.38;;;19.40;60.90;;;;;;5003781;28;20045;-57
2021/11/20 00:24:16;;;;;;;10.38;5.07;;;19.40;60.90;;;;;;5010550;28;20050;-57
2021/11/20 00:26:43;;;;;;;8.93;4.57;;;19.40;60.90;;;;;;4994397;28;20140;-56
2021/11/20 00:29:26;;;;;;;8.15;4.80;;;19.40;60.90;;;;;;5004448;28;20057;-57
2021/11/20 00:31:56;;;;;;;8.73;4.85;;;19.40;61.00;;;;;;5005558;28;20062;-56
2021/11/20 00:34:25;;;;;;;8.55;4.88;;;19.40;61.00;;;;;;5002615;28;20436;-56
2021/11/20 00:36:53;;;;;;;9.43;4.77;;;19.40;61.00;;;;;;5001630;28;20050;-56
2021/11/20 00:39:24;;;;;;;11.45;4.78;;;19.40;61.00;;;;;;5000558;28;20171;-57
2021/11/20 00:41:54;;;;;;;9.20;4.60;;;19.40;61.00;;;;;;5001956;28;20049;-57
2021/11/20 00:44:23;;;;;;;10.10;5.30;;;19.40;61.00;;;;;;5005611;28;20060;-57
2021/11/20 00:46:51;;;;;;;10.55;5.30;;;19.40;61.00;;;;;;5006297;28;20790;-56
2021/11/20 00:49:19;;;;;;;8.63;4.30;;;19.40;61.10;;;;;;5001092;28;20056;-57
2021/11/20 00:51:47;;;;;;;9.35;4.82;;;19.40;61.10;;;;;;4999045;28;20317;-56
2021/11/20 00:54:17;;;;;;;9.90;4.50;;;19.40;61.10;;;;;;5000109;28;20050;-56
2021/11/20 00:56:45;;;;;;;8.10;4.50;;;19.40;61.10;;;;;;5010842;28;20060;-57
2021/11/20 00:59:12;;;;;;;8.52;4.65;;;19.40;61.10;;;;;;5005550;28;20057;-57
2021/11/20 01:01:44;;;;;;;9.88;4.57;;;19.40;61.10;;;;;;5016585;28;20057;-57
2021/11/20 01:04:14;;;;;;;9.45;4.85;;;19.50;61.10;;;;;;5014943;28;20046;-57
2021/11/20 01:06:42;;;;;;;8.77;4.22;;;19.40;61.10;;;;;;5019585;28;20432;-57
2021/11/20 01:09:13;;;;;;;8.25;4.43;;;19.40;61.10;;;;;;5022403;28;20066;-57
2021/11/20 01:11:44;;;;;;;9.82;4.53;;;19.40;61.10;;;;;;5003836;28;20056;-57
2021/11/20 01:14:16;;;;;;;8.25;4.45;;;19.40;61.10;;;;;;5020304;28;20080;-58
2021/11/20 01:16:47;;;;;;;7.85;4.28;;;19.40;61.10;;;;;;5009073;28;20087;-56
2021/11/20 01:19:16;;;;;;;8.18;4.25;;;19.40;61.10;;;;;;5005586;28;20046;-57
2021/11/20 01:22:04;;;;;;;7.00;3.83;;;19.50;61.10;;;;;;5000401;28;20510;-57
2021/11/20 01:24:40;;;;;;;7.68;4.43;;;19.50;61.10;;;;;;5020474;28;20050;-57
2021/11/20 01:27:12;;;;;;;9.20;4.18;;;19.40;61.10;;;;;;5019521;28;20041;-57
2021/11/20 01:29:43;;;;;;;8.32;4.57;;;19.50;61.10;;;;;;5003564;28;20051;-57
2021/11/20 01:32:11;;;;;;;7.07;3.63;;;19.40;61.10;;;;;;5025351;28;20046;-57
2021/11/20 01:34:40;;;;;;;7.53;4.22;;;19.50;61.10;;;;;;5020623;28;20061;-58
2021/11/20 01:37:09;;;;;;;8.40;4.20;;;19.50;61.20;;;;;;5009290;28;20053;-57
2021/11/20 01:39:44;;;;;;;8.25;4.07;;;19.40;61.20;;;;;;5010936;28;20069;-58
2021/11/20 01:42:21;;;;;;;8.57;4.30;;;19.40;61.20;;;;;;5016845;28;20229;-57
2021/11/20 01:44:55;;;;;;;8.85;4.07;;;19.50;61.20;;;;;;5018800;28;20053;-56
2021/11/20 01:47:37;;;;;;;6.35;3.67;;;19.50;61.20;;;;;;5019681;28;20249;-57
2021/11/20 01:50:09;;;;;;;7.63;3.55;;;19.40;61.20;;;;;;5002452;28;20132;-57
2021/11/20 01:52:44;;;;;;;6.88;3.97;;;19.50;61.20;;;;;;4999975;28;20666;-57
2021/11/20 01:55:22;;;;;;;7.25;3.88;;;19.50;61.20;;;;;;5019868;28;20476;-57
2021/11/20 01:58:15;;;;;;;6.78;4.05;;;19.50;61.20;;;;;;5025901;28;20129;-57
2021/11/20 02:00:46;;;;;;;8.02;4.00;;;19.50;61.20;;;;;;5026924;28;20042;-56
2021/11/20 02:03:26;;;;;;;6.60;3.80;;;19.50;61.20;;;;;;4988183;28;20360;-57
2021/11/20 02:06:01;;;;;;;5.30;2.72;;;19.50;61.20;;;;;;4985664;28;20136;-57
2021/11/20 02:08:52;;;;;;;7.75;3.95;;;19.50;61.20;;;;;;4994868;28;20136;-57
2021/11/20 02:11:25;;;;;;;9.48;4.40;;;19.50;61.10;;;;;;4977627;28;20499;-58
2021/11/20 02:13:53;;;;;;;6.28;3.30;;;19.50;61.20;;;;;;4988807;28;20153;-56
2021/11/20 02:16:23;;;;;;;6.97;3.47;;;19.50;61.20;;;;;;4980264;28;20050;-58
2021/11/20 02:19:00;;;;;;;8.25;3.67;;;19.50;61.10;;;;;;4985165;28;20058;-57
2021/11/20 02:21:37;;;;;;;7.65;3.45;;;19.50;61.10;;;;;;4996695;28;20530;-57
2021/11/20 02:24:04;;;;;;;6.88;3.20;;;19.50;61.20;;;;;;4993977;28;20050;-57
2021/11/20 02:26:35;;;;;;;6.60;3.63;;;19.50;61.10;;;;;;4989961;28;20046;-57
2021/11/20 02:29:07;;;;;;;6.60;3.30;;;19.50;61.20;;;;;;4993564;28;20549;-58
2021/11/20 02:31:50;;;;;;;6.10;2.95;;;19.50;61.10;;;;;;4995934;28;20046;-57
2021/11/20 02:34:21;;;;;;;6.43;3.25;;;19.50;61.10;;;;;;4983033;28;20049;-58
2021/11/20 02:36:49;;;;;;;6.10;3.40;;;19.50;61.10;;;;;;4995977;28;20057;-56
2021/11/20 02:39:19;;;;;;;6.90;3.15;;;19.50;61.10;;;;;;4990167;28;20574;-57
2021/11/20 02:41:48;;;;;;;5.47;2.78;;;19.50;61.30;;;;;;4992831;28;20410;-57
2021/11/20 02:44:17;;;;;;;6.75;3.33;;;19.50;61.20;;;;;;4973191;28;20051;-56
2021/11/20 02:46:51;;;;;;;4.90;2.78;;;19.60;61.20;;;;;;4974623;28;20133;-56
2021/11/20 02:49:19;;;;;;;5.75;3.13;;;19.60;61.30;;;;;;4979629;28;20065;-57
2021/11/20 02:52:08;;;;;;;5.35;3.00;;;19.60;61.40;;;;;;4974619;28;20499;-55
2021/11/20 02:54:36;;;;;;;6.68;3.50;;;19.60;61.50;;;;;;4990682;28;20061;-56
2021/11/20 02:57:07;;;;;;;6.53;3.20;;;19.50;61.40;;;;;;4972803;28;20057;-56
2021/11/20 02:59:35;;;;;;;7.53;2.92;;;19.60;61.40;;;;;;4961028;28;20065;-56
2021/11/20 03:02:05;;;;;;;6.68;2.83;;;19.50;61.30;;;;;;4985139;28;20061;-56
2021/11/20 03:04:32;;;;;;;6.00;3.15;;;19.50;61.20;;;;;;5008373;28;20060;-56
2021/11/20 03:07:00;;;;;;;7.68;3.03;;;19.50;61.20;;;;;;5009964;28;20060;-56
2021/11/20 03:09:34;;;;;;;6.88;3.08;;;19.40;61.00;;;;;;5025493;28;20407;-56
2021/11/20 03:12:10;;;;;;;6.55;3.03;;;19.40;61.10;;;;;;5008966;28;20053;-55
2021/11/20 03:14:39;;;;;;;6.28;3.13;;;19.50;61.00;;;;;;5008482;28;20048;-56
2021/11/20 03:17:09;;;;;;;6.50;2.60;;;19.40;60.80;;;;;;5009597;28;20048;-55
2021/11/20 03:19:41;;;;;;;5.22;2.60;;;19.40;60.70;;;;;;5025551;28;20056;-55
2021/11/20 03:22:10;;;;;;;6.78;3.25;;;19.40;60.50;;;;;;5024464;28;20052;-56
2021/11/20 03:24:43;;;;;;;6.00;2.65;;;19.40;60.50;;;;;;5019838;28;21679;-56
2021/11/20 03:27:11;;;;;;;4.93;2.40;;;19.40;60.50;;;;;;5013014;28;20052;-57
2021/11/20 03:29:38;;;;;;;4.93;2.35;;;19.40;60.40;;;;;;4998174;28;20060;-58
2021/11/20 03:32:09;;;;;;;4.78;2.58;;;19.40;60.30;;;;;;5009415;28;20049;-58
2021/11/20 03:35:20;;;;;;;6.28;3.03;;;19.40;60.70;;;;;;5088563;27;20183;-57
2021/11/20 03:37:51;;;;;;;6.45;3.03;;;19.40;60.40;;;;;;5070283;28;20528;-56
2021/11/20 03:40:20;;;;;;;6.25;2.63;;;19.50;60.30;;;;;;5071847;28;20102;-58
2021/11/20 03:42:51;;;;;;;4.82;2.67;;;19.50;60.20;;;;;;5072571;28;20490;-58
2021/11/20 03:45:19;;;;;;;6.15;3.35;;;19.50;60.20;;;;;;5078049;27;20103;-57
2021/11/20 03:47:47;;;;;;;4.55;2.33;;;19.50;60.20;;;;;;5087969;28;20041;-58
2021/11/20 03:50:16;;;;;;;5.25;2.35;;;19.50;60.20;;;;;;5082673;28;20054;-58
2021/11/20 03:52:45;;;;;;;4.55;2.33;;;19.50;60.10;;;;;;5095530;27;20066;-57
2021/11/20 03:55:15;;;;;;;6.95;2.50;;;19.50;60.10;;;;;;5085020;28;20063;-59
2021/11/20 03:57:42;;;;;;;5.70;2.15;;;19.60;60.20;;;;;;5116719;27;20148;-56
2021/11/20 04:00:12;;;;;;;5.05;2.30;;;19.50;60.20;;;;;;5092752;27;20331;-57
2021/11/20 04:02:41;;;;;;;5.00;2.60;;;19.50;60.20;;;;;;5092066;27;20082;-57
2021/11/20 04:05:11;;;;;;;5.03;2.63;;;19.50;60.20;;;;;;5095175;27;20191;-57
2021/11/20 04:07:40;;;;;;;5.57;2.50;;;19.50;60.20;;;;;;5111447;27;20410;-58
2021/11/20 04:10:10;;;;;;;4.43;2.40;;;19.50;60.20;;;;;;5089126;27;20047;-57
2021/11/20 04:12:38;;;;;;;3.95;2.42;;;19.50;60.20;;;;;;5090831;27;20139;-59
2021/11/20 04:15:07;;;;;;;5.65;2.28;;;19.50;60.30;;;;;;5089920;27;20044;-57
2021/11/20 04:17:36;;;;;;;5.32;2.47;;;19.50;60.30;;;;;;5087730;28;20052;-60
2021/11/20 04:20:04;;;;;;;6.13;2.92;;;19.40;60.30;;;;;;5087691;28;20105;-59
2021/11/20 04:22:32;;;;;;;5.20;2.30;;;19.40;60.30;;;;;;5091866;27;20493;-56
2021/11/20 04:24:59;;;;;;;4.68;2.30;;;19.50;60.30;;;;;;5096196;28;20056;-58
2021/11/20 04:27:45;;;;;;;5.97;2.55;;;19.40;60.30;;;;;;5091080;28;20048;-59
2021/11/20 04:30:21;;;;;;;4.50;2.30;;;19.40;60.30;;;;;;5089446;28;20059;-59
2021/11/20 04:32:49;;;;;;;;;;;19.40;60.30;;;;;;5110899;27;20743;-56
2021/11/20 04:35:18;;;;;;;4.68;2.20;;;19.40;60.40;;;;;;5099744;27;19924;-59
2021/11/20 04:37:46;;;;;;;4.07;2.20;;;19.40;60.40;;;;;;5083511;28;20048;-57
2021/11/20 04:40:16;;;;;;;5.40;2.33;;;19.40;60.40;;;;;;5108089;27;20062;-58
2021/11/20 04:42:47;;;;;;;5.53;2.30;;;19.40;60.50;;;;;;5075404;28;20128;-57
2021/11/20 04:45:16;;;;;;;4.80;2.13;;;19.40;60.50;;;;;;5064248;28;20052;-58
2021/11/20 04:47:43;;;;;;;4.32;2.10;;;19.40;60.50;;;;;;5055746;28;20558;-59
2021/11/20 04:50:17;;;;;;;4.88;2.40;;;19.30;60.50;;;;;;5049999;28;20053;-58
2021/11/20 04:52:51;;;;;;;3.90;1.95;;;19.30;60.50;;;;;;5055127;28;20509;-58
2021/11/20 04:55:20;;;;;;;4.72;2.65;;;19.30;60.50;;;;;;5060213;28;20106;-57
2021/11/20 04:57:49;;;;;;;;;;;19.30;60.60;;;;;;5064339;28;20044;-57
2021/11/20 05:00:20;;;;;;;4.82;2.17;;;19.30;60.60;;;;;;5080203;28;20027;-57
2021/11/20 05:02:53;;;;;;;4.10;1.98;;;19.30;60.60;;;;;;5077868;28;20047;-58
2021/11/20 05:05:27;;;;;;;5.47;2.28;;;19.30;60.60;;;;;;5073238;28;20067;-57
2021/11/20 05:07:55;;;;;;;5.40;2.10;;;19.30;60.60;;;;;;5062250;28;20045;-58
2021/11/20 05:10:22;;;;;;;6.18;2.38;;;19.30;60.60;;;;;;5058971;28;20044;-58
2021/11/20 05:12:53;;;;;;;6.53;2.45;;;19.30;60.60;;;;;;5053388;28;20056;-60
2021/11/20 05:15:28;;;;;;;4.85;2.08;;;19.30;60.60;;;;;;5053210;28;20044;-60
2021/11/20 05:17:56;;;;;;;4.43;2.40;;;19.30;60.70;;;;;;5057144;28;20056;-59
2021/11/20 05:24:00;;;;;;;4.53;2.17;;;19.30;60.70;;;;;;5098208;27;20543;-58
2021/11/20 05:26:33;;;;;;;4.05;1.92;;;19.30;60.80;;;;;;5096573;28;20048;-59
2021/11/20 05:29:06;;;;;;;4.85;2.15;;;19.20;60.90;;;;;;5095357;27;20656;-58
2021/11/20 05:31:38;;;;;;;4.88;2.25;;;19.20;61.00;;;;;;5092464;28;20048;-58
2021/11/20 05:34:06;;;;;;;4.25;2.45;;;19.20;61.00;;;;;;5116028;28;20127;-58
2021/11/20 05:36:35;;;;;;;3.30;1.92;;;19.20;61.10;;;;;;5095743;28;20039;-58
2021/11/20 05:39:08;;;;;;;4.70;2.15;;;19.10;61.10;;;;;;5095526;28;20489;-58
2021/11/20 05:41:36;;;;;;;3.00;1.67;;;19.10;61.10;;;;;;5090984;28;20068;-58
2021/11/20 05:44:04;;;;;;;6.05;1.85;;;19.10;61.10;;;;;;5090650;28;20047;-57
2021/11/20 05:46:39;;;;;;;4.25;1.88;;;19.10;61.10;;;;;;5109712;27;20508;-59
2021/11/20 05:49:06;;;;;;;5.78;2.15;;;19.10;61.10;;;;;;5093273;27;20043;-58
2021/11/20 05:51:34;;;;;;;4.32;1.88;;;19.10;61.20;;;;;;5092115;28;20117;-57
2021/11/20 05:54:01;;;;;;;5.22;2.03;;;19.10;61.20;;;;;;5093393;28;20055;-58
2021/11/20 05:56:33;;;;;;;3.30;1.63;;;19.10;61.20;;;;;;5093775;28;20045;-58
2021/11/20 05:59:01;;;;;;;4.57;1.98;;;19.10;61.20;;;;;;5093037;28;20566;-58
2021/11/20 06:01:32;;;;;;;4.50;1.83;;;19.10;61.20;;;;;;5106721;27;20730;-59
2021/11/20 06:03:59;;;;;;;4.57;2.13;;;19.10;61.20;;;;;;5091865;27;20047;-58
2021/11/20 06:06:27;;;;;;;3.40;1.92;;;19.10;61.20;;;;;;5080863;28;20043;-59
2021/11/20 06:08:55;;;;;;;4.35;2.03;;;19.10;61.20;;;;;;5075914;28;20389;-58
2021/11/20 06:11:22;;;;;;;3.50;1.67;;;19.10;61.20;;;;;;5075849;28;20052;-59
2021/11/20 06:13:51;;;;;;;3.90;1.60;;;19.10;61.20;;;;;;5085127;28;20075;-56
2021/11/20 06:16:28;;;;;;;2.75;1.60;;;19.10;61.20;;;;;;5072801;28;20098;-58
2021/11/20 06:18:56;;;;;;;4.10;1.90;;;19.10;61.20;;;;;;5072704;28;20044;-58
2021/11/20 06:21:23;;;;;;;4.03;2.00;;;19.10;61.20;;;;;;5079015;28;20044;-58
2021/11/20 06:23:51;;;;;;;3.38;1.63;;;19.10;61.20;;;;;;5076268;28;20079;-59
2021/11/20 06:26:18;;;;;;;4.15;2.08;;;19.10;61.20;;;;;;5088361;28;20051;-60
2021/11/20 06:28:47;;;;;;;3.83;1.73;;;19.00;61.20;;;;;;5065717;28;20054;-59
2021/11/20 06:31:22;;;;;;;4.10;1.90;;;19.00;61.20;;;;;;5072660;28;20044;-58
2021/11/20 06:34:06;;;;;;;4.32;1.63;;;19.00;61.20;;;;;;5066293;28;20463;-60
2021/11/20 06:37:08;;;;;;;4.05;1.65;;;19.10;61.20;;;;;;5006851;28;20557;-59
2021/11/20 06:39:58;;;;;;;3.33;1.20;;;19.00;61.20;;;;;;5054548;28;20048;-58
2021/11/20 06:42:26;;;;;;;2.83;1.48;;;19.00;61.20;;;;;;5067312;28;20361;-57
2021/11/20 06:44:53;;;;;;;5.07;1.90;;;19.00;61.20;;;;;;5077891;28;20405;-60
2021/11/20 06:47:21;;;;;;;3.13;1.63;;;19.10;61.20;;;;;;5059338;28;20062;-58
2021/11/20 06:49:50;;;;;;;;;;;19.10;61.20;;;;;;5062253;28;20044;-58
2021/11/20 06:52:17;;;;;;;3.33;1.45;;;19.00;61.20;;;;;;5061198;28;19935;-58
2021/11/20 06:54:56;;;;;;;3.72;1.70;;;19.00;61.20;;;;;;5062830;28;20146;-59
2021/11/20 06:57:56;;;;;;;3.50;1.52;;;19.00;61.10;;;;;;5027926;28;20060;-58
2021/11/20 07:00:45;;;;;;;2.95;1.48;;;19.00;61.10;;;;;;5063459;28;20151;-60
2021/11/20 07:03:25;;;;;;;3.95;2.10;;;19.00;61.10;;;;;;5027332;28;20064;-59
2021/11/20 07:06:09;;;;;;;2.75;1.50;;;19.00;61.10;;;;;;5030354;28;20068;-59
2021/11/20 07:08:36;;;;;;;4.13;1.88;;;19.00;61.10;;;;;;5050365;28;20055;-58
2021/11/20 07:11:03;;;;;;;4.03;1.70;;;19.00;61.20;;;;;;5065109;28;20051;-58
2021/11/20 07:13:30;;;;;;;3.60;1.50;;;19.00;61.20;;;;;;5041420;28;20520;-57
2021/11/20 07:15:57;;;;;;;4.25;1.80;;;19.00;61.20;;;;;;5045809;28;20132;-59
2021/11/20 07:18:28;;;;;;;2.40;1.40;;;19.00;61.10;;;;;;5068406;28;20047;-57
2021/11/20 07:21:10;;;;;;;3.10;1.67;;;19.00;61.10;;;;;;5066439;28;20043;-58
2021/11/20 07:24:00;;;;;;;4.78;1.50;;;19.00;61.10;;;;;;5046555;28;20068;-58
2021/11/20 07:26:32;;;;;;;3.08;1.85;;;19.00;61.20;;;;;;5065778;28;20044;-58
2021/11/20 07:28:59;;;;;;;3.00;1.35;;;19.00;61.20;;;;;;5077242;28;20044;-58
2021/11/20 07:31:29;;;;;;;3.70;1.67;;;19.00;61.10;;;;;;5064717;28;20052;-58
2021/11/20 07:33:59;;;;;;;3.10;1.77;;;19.00;61.10;;;;;;5062012;28;20052;-59
2021/11/20 07:36:27;;;;;;;2.58;1.23;;;19.00;61.10;;;;;;5076854;28;20074;-59
2021/11/20 07:38:58;;;;;;;3.60;1.48;;;19.00;61.10;;;;;;5062735;28;20046;-58
2021/11/20 07:41:28;;;;;;;2.65;1.30;;;19.00;61.20;;;;;;5057764;28;20044;-58
2021/11/20 07:44:00;;;;;;;3.08;1.40;;;19.00;61.20;;;;;;5062659;28;20132;-59
2021/11/20 07:46:35;;;;;;;2.08;1.15;;;19.00;61.20;;;;;;5063870;28;20056;-60
2021/11/20 07:49:07;;;;;;;3.72;1.50;;;19.00;61.10;;;;;;5054510;28;20047;-57
2021/11/20 07:51:38;;;;;;;2.65;1.33;;;19.00;61.10;;;;;;5057335;28;20113;-58
2021/11/20 07:54:07;;;;;;;2.75;1.35;;;19.00;61.10;;;;;;5062409;28;20048;-59
2021/11/20 07:56:45;;;;;;;3.65;1.70;;;19.00;61.10;;;;;;5079364;28;20478;-57
2021/11/20 07:59:14;;;;;;;3.25;1.63;;;19.00;61.10;;;;;;5067311;28;20045;-57
2021/11/20 08:01:42;;;;;;;3.25;1.63;;;19.00;61.10;;;;;;5063915;28;20055;-59
2021/11/20 08:04:14;;;;;;;2.97;1.40;;;19.00;61.10;;;;;;5057023;28;20558;-58
2021/11/20 08:06:47;;;;;;;3.47;1.13;;;19.00;61.20;;;;;;5065185;28;20052;-58
2021/11/20 08:09:25;;;;;;;4.75;1.35;;;19.00;61.10;;;;;;5062602;28;20125;-58
2021/11/20 08:11:58;;;;;;;2.33;1.40;;;19.10;61.20;;;;;;5062582;28;20048;-58
2021/11/20 08:14:31;;;;;;;2.92;1.60;;;19.00;61.10;;;;;;5081821;28;20051;-58
2021/11/20 08:17:04;;;;;;;3.42;1.60;;;19.00;61.10;;;;;;5067985;28;20095;-58
2021/11/20 08:19:40;;;;;;;3.88;1.63;;;19.00;61.10;;;;;;5061926;28;20048;-62
2021/11/20 08:22:36;;;;;;;3.55;1.60;;;19.00;61.10;;;;;;5054970;28;20056;-58
2021/11/20 08:25:05;;;;;;;2.38;1.27;;;19.00;61.10;;;;;;5054930;28;20416;-57
2021/11/20 08:27:33;;;;;;;3.55;1.52;;;19.00;61.10;;;;;;5058334;28;20044;-57
2021/11/20 08:30:10;;;;;;;2.38;1.40;;;19.00;61.10;;;;;;5056571;28;20053;-57
2021/11/20 08:32:48;;;;;;;2.53;1.33;;;19.00;61.10;;;;;;5055174;28;20048;-57
2021/11/20 08:35:37;;;;;;;2.67;1.27;;;19.00;61.10;;;;;;5052091;28;20071;-57
2021/11/20 08:38:23;;;;;;;2.53;1.40;;;19.00;61.10;;;;;;5059275;28;20059;-57
2021/11/20 08:41:05;;;;;;;3.13;1.50;;;19.00;61.10;;;;;;5058597;28;20044;-56
2021/11/20 08:43:32;;;;;;;2.83;1.38;;;19.00;61.10;;;;;;5059119;28;20136;-59
2021/11/20 08:46:08;;;;;;;3.95;1.63;;;19.00;61.10;;;;;;5062293;28;20071;-58
2021/11/20 08:48:37;;;;;;;2.88;1.60;;;19.00;61.10;;;;;;5061268;28;20063;-59
2021/11/20 08:51:08;;;;;;;2.45;1.33;;;19.00;61.10;;;;;;5077379;28;20040;-60
2021/11/20 08:53:38;;;;;;;2.53;1.10;;;19.00;61.10;;;;;;5080638;28;20059;-58
2021/11/20 08:56:07;;;;;;;3.03;1.17;;;19.00;61.10;;;;;;5057993;28;20383;-59
2021/11/20 08:58:38;;;;;;;3.67;1.40;;;19.00;61.10;;;;;;5064881;28;20678;-59
2021/11/20 09:01:11;;;;;;;3.30;1.67;;;19.00;61.10;;;;;;5059208;28;20048;-58
2021/11/20 09:04:02;;;;;;;4.07;1.60;;;19.10;61.10;;;;;;5060317;28;20558;-59
2021/11/20 09:06:43;;;;;;;3.75;1.60;;;19.00;61.10;;;;;;5064497;28;20135;-58
2021/11/20 09:09:14;;;;;;;3.88;1.30;;;19.00;61.10;;;;;;5065379;28;20065;-59
2021/11/20 09:11:46;;;;;;;5.00;1.75;;;19.00;61.10;;;;;;5065259;28;20036;-58
2021/11/20 09:14:22;;;;;;;2.80;1.13;;;19.00;61.10;;;;;;5054940;28;20048;-60
2021/11/20 09:17:12;;;;;;;3.15;1.67;;;19.00;61.10;;;;;;5064248;28;20040;-60
2021/11/20 09:19:43;;;;;;;2.47;1.27;;;19.00;61.10;;;;;;5074260;28;20805;-59
2021/11/20 09:22:11;;;;;;;2.97;1.48;;;19.00;61.10;;;;;;5058849;28;20551;-60
2021/11/20 09:24:49;;;;;;;3.25;1.48;;;19.00;61.10;;;;;;5057315;28;20526;-58
2021/11/20 09:27:26;;;;;;;2.63;1.25;;;19.00;61.10;;;;;;5061240;28;20068;-58
2021/11/20 09:29:54;;;;;;;4.30;1.55;;;19.00;61.00;;;;;;5053914;28;20420;-60
2021/11/20 09:32:23;;;;;;;2.67;1.40;;;19.00;61.10;;;;;;5060433;28;20045;-59
2021/11/20 09:34:54;;;;;;;3.38;1.60;;;19.00;61.10;;;;;;5069379;28;20546;-58
2021/11/20 09:37:42;;;;;;;2.80;1.30;;;19.00;61.10;;;;;;5016499;28;20048;-58
2021/11/20 09:40:18;;;;;;;3.47;1.88;;;19.00;61.10;;;;;;5056081;28;20036;-58
2021/11/20 09:42:47;;;;;;;2.15;1.23;;;19.10;61.10;;;;;;5059608;28;20448;-59
2021/11/20 09:45:19;;;;;;;3.72;1.30;;;19.10;61.10;;;;;;5061678;28;20391;-59
2021/11/20 09:47:56;;;;;;;2.20;1.30;;;19.10;61.10;;;;;;5072125;28;20674;-59
2021/11/20 09:50:27;;;;;;;2.60;1.35;;;19.10;61.10;;;;;;5054994;28;20044;-59
2021/11/20 09:52:56;;;;;;;2.38;1.15;;;19.10;61.10;;;;;;5060351;28;20147;-59
2021/11/20 09:55:27;;;;;;;3.33;1.50;;;19.10;61.10;;;;;;5063480;28;20267;-59
2021/11/20 09:57:56;;;;;;;2.65;1.40;;;19.00;61.10;;;;;;5064547;28;20051;-59
2021/11/20 10:01:12;;;;;;;2.80;1.52;;;19.00;61.10;;;;;;5063290;28;20047;-59
2021/11/20 10:03:45;;;;;;;2.55;1.33;;;19.10;61.10;;;;;;5028413;28;20052;-60
2021/11/20 10:06:13;;;;;;;3.33;1.45;;;19.00;61.10;;;;;;5064828;28;20062;-59
2021/11/20 10:08:44;;;;;;;3.70;1.85;;;19.00;61.10;;;;;;5064037;28;20059;-59
2021/11/20 10:11:25;;;;;;;2.90;1.50;;;19.00;61.10;;;;;;5065422;28;20037;-57
2021/11/20 10:13:56;;;;;;;3.03;1.50;;;19.00;61.10;;;;;;5067601;28;20059;-59
2021/11/20 10:16:26;;;;;;;2.30;1.30;;;19.00;61.10;;;;;;5067348;28;20044;-58
2021/11/20 10:18:56;;;;;;;2.08;1.27;;;19.00;61.10;;;;;;5065513;28;20052;-60
2021/11/20 10:21:35;;;;;;;2.95;1.55;;;19.00;61.10;;;;;;5058706;28;20589;-59
2021/11/20 10:24:11;;;;;;;3.65;1.70;;;19.00;61.10;;;;;;5063383;28;20059;-57
2021/11/20 10:27:05;;;;;;;3.30;1.85;;;19.00;61.10;;;;;;5062405;28;20044;-58
2021/11/20 10:29:55;;;;;;;5.32;1.30;;;19.00;61.00;;;;;;5065645;28;20041;-60
2021/11/20 10:32:33;;;;;;;2.50;1.50;;;19.00;61.10;;;;;;5066928;28;20271;-57
2021/11/20 10:35:12;;;;;;;3.03;1.30;;;19.00;61.10;;;;;;5067751;28;20048;-61
2021/11/20 10:37:42;;;;;;;3.25;1.60;;;19.00;61.10;;;;;;5064163;28;20048;-60
2021/11/20 10:40:28;;;;;;;3.50;1.35;;;19.00;61.10;;;;;;5063054;28;22718;-60
2021/11/20 10:43:09;;;;;;;2.28;1.20;;;19.00;61.10;;;;;;5065994;28;20048;-59
2021/11/20 10:45:50;;;;;;;2.70;1.48;;;19.00;61.10;;;;;;5072272;28;20056;-58
2021/11/20 10:48:30;;;;;;;3.30;1.67;;;19.00;61.10;;;;;;5075317;28;20044;-58
2021/11/20 10:51:30;;;;;;;2.17;1.27;;;19.00;61.00;;;;;;5058257;28;20040;-59
2021/11/20 10:54:26;;;;;;;3.20;1.50;;;19.00;61.10;;;;;;5068253;28;20056;-59
2021/11/20 10:57:13;;;;;;;3.25;1.50;;;19.00;61.10;;;;;;5065607;28;20135;-57
2021/11/20 11:00:18;;;;;;;3.28;1.63;;;19.00;61.00;;;;;;5053754;28;20048;-58
2021/11/20 11:03:04;;;;;;;3.63;1.52;;;19.00;61.00;;;;;;5070102;28;20055;-59
2021/11/20 11:06:02;;;;;;;4.00;1.67;;;19.00;61.00;;;;;;5065753;28;20043;-58
2021/11/20 11:08:41;;;;;;;3.03;1.48;;;19.00;61.00;;;;;;5068771;28;20052;-57
2021/11/20 11:11:18;;;;;;;2.75;1.63;;;19.00;61.10;;;;;;5067314;28;20461;-58
2021/11/20 11:14:16;;;;;;;4.47;1.75;;;19.00;61.00;;;;;;5066622;28;20070;-58
2021/11/20 11:16:46;;;;;;;3.28;1.50;;;18.90;61.00;;;;;;5006682;28;20046;-58
2021/11/20 11:19:25;;;;;;;2.42;1.40;;;19.00;61.00;;;;;;5055109;28;20556;-58
2021/11/20 11:21:59;;;;;;;3.33;1.83;;;19.00;61.00;;;;;;5061037;28;20063;-59
2021/11/20 11:24:42;;;;;;;3.03;1.60;;;19.00;61.00;;;;;;5063986;28;20036;-58
2021/11/20 11:27:13;;;;;;;2.88;1.40;;;19.00;61.00;;;;;;5063539;28;20048;-58
2021/11/20 11:30:05;;;;;;;2.88;1.40;;;19.00;61.00;;;;;;5059958;28;20081;-59
2021/11/20 11:32:34;;;;;;;3.65;1.30;;;19.00;61.00;;;;;;5061662;28;20053;-59
2021/11/20 11:35:08;;;;;;;2.58;1.40;;;19.00;61.00;;;;;;5052996;28;20060;-59
2021/11/20 11:37:44;;;;;;;2.90;1.40;;;19.00;61.00;;;;;;5062656;28;20534;-58
2021/11/20 11:40:24;;;;;;;3.33;1.65;;;19.00;61.00;;;;;;5061046;28;20503;-58
2021/11/20 11:42:56;;;;;;;2.83;1.60;;;19.00;61.00;;;;;;5063602;28;20040;-59
2021/11/20 11:46:07;;;;;;;2.67;1.40;;;19.00;61.00;;;;;;5066172;28;20460;-56
2021/11/20 11:48:59;;;;;;;3.22;1.58;;;19.00;61.00;;;;;;5020460;28;20044;-59
2021/11/20 11:51:37;;;;;;;4.45;1.77;;;18.90;61.00;;;;;;5064372;28;20501;-58
2021/11/20 11:54:20;;;;;;;2.72;1.40;;;19.00;61.00;;;;;;5065351;28;20043;-58
2021/11/20 11:57:00;;;;;;;3.88;1.83;;;18.90;61.00;;;;;;5065738;28;20241;-59
2021/11/20 11:59:49;;;;;;;3.28;1.70;;;19.00;61.00;;;;;;5041230;28;20044;-60
2021/11/20 12:02:20;;;;;;;2.60;1.13;;;19.00;61.00;;;;;;5042022;28;20410;-58
2021/11/20 12:04:50;;;;;;;2.53;1.27;;;19.00;60.90;;;;;;5065555;28;20048;-59
2021/11/20 12:07:45;;;;;;;2.63;1.50;;;19.00;60.90;;;;;;5056671;28;20386;-57
2021/11/20 12:10:29;;;;;;;3.10;1.45;;;19.00;60.90;;;;;;5060431;28;20047;-58
2021/11/20 12:13:01;;;;;;;2.42;1.40;;;19.00;60.90;;;;;;5068504;28;20046;-59
2021/11/20 12:15:34;;;;;;;2.70;1.35;;;18.90;60.90;;;;;;5068016;28;20048;-58
2021/11/20 12:18:15;;;;;;;3.67;1.25;;;19.00;61.00;;;;;;5063059;28;20055;-59
2021/11/20 12:20:53;;;;;;;3.13;1.67;;;19.00;60.90;;;;;;5067704;28;20060;-58
2021/11/20 12:23:35;;;;;;;3.45;1.70;;;18.90;60.90;;;;;;5053999;28;20048;-59
2021/11/20 12:26:14;;;;;;;2.80;1.30;;;19.00;61.00;;;;;;5059338;28;20048;-57
2021/11/20 12:28:59;;;;;;;2.53;1.25;;;18.90;60.90;;;;;;5063933;28;20059;-58
2021/11/20 12:32:04;;;;;;;2.90;1.45;;;19.00;60.90;;;;;;5064478;28;20055;-57
2021/11/20 12:35:00;;;;;;;2.97;1.33;;;18.90;60.90;;;;;;5014670;28;20049;-58
2021/11/20 12:37:53;;;;;;;2.38;1.40;;;18.90;60.90;;;;;;5062945;28;20282;-58
2021/11/20 12:40:40;;;;;;;3.35;1.50;;;19.00;60.90;;;;;;5060479;28;20056;-58
2021/11/20 12:43:46;;;;;;;2.65;1.30;;;19.00;60.90;;;;;;5066780;28;20054;-58
2021/11/20 12:46:24;;;;;;;2.45;1.40;;;18.90;60.90;;;;;;5068492;28;20054;-58
2021/11/20 12:49:27;;;;;;;2.13;1.25;;;18.90;60.90;;;;;;5065859;28;20056;-59
2021/11/20 12:52:00;;;;;;;2.40;1.25;;;19.00;60.90;;;;;;5035716;28;20052;-59
2021/11/20 12:54:49;;;;;;;2.90;1.50;;;19.00;60.90;;;;;;5065318;28;20052;-57
2021/11/20 12:57:20;;;;;;;2.90;1.50;;;19.00;60.90;;;;;;5065275;28;20055;-58
2021/11/20 12:59:50;;;;;;;3.60;1.75;;;19.00;60.90;;;;;;5063090;28;20139;-58
2021/11/20 13:02:22;;;;;;;;;;;18.90;60.90;;;;;;5065235;28;20052;-58
2021/11/20 13:04:52;;;;;;;2.30;1.00;;;19.00;60.90;;;;;;5065300;28;19920;-58
2021/11/20 13:07:24;;;;;;;2.78;1.38;;;18.90;60.90;;;;;;5063041;28;20044;-57
2021/11/20 13:09:56;;;;;;;3.83;1.52;;;18.90;60.90;;;;;;5064485;28;20052;-57
2021/11/20 13:12:30;;;;;;;3.60;1.38;;;18.90;60.90;;;;;;5062820;28;20045;-58
2021/11/20 13:15:25;;;;;;;2.83;1.52;;;19.00;60.90;;;;;;5063245;28;20056;-58
2021/11/20 13:18:00;;;;;;;2.97;1.50;;;19.00;60.90;;;;;;5062349;28;20059;-59
2021/11/20 13:20:36;;;;;;;3.38;1.42;;;18.90;60.90;;;;;;5054805;28;20056;-57
2021/11/20 13:23:12;;;;;;;2.85;1.38;;;19.00;60.90;;;;;;5034444;28;20061;-59
2021/11/20 13:25:53;;;;;;;6.15;1.83;;;19.00;60.90;;;;;;5028211;28;20045;-57
2021/11/20 13:28:21;;;;;;;2.33;1.25;;;19.00;60.90;;;;;;5029558;28;20066;-58
2021/11/20 13:30:48;;;;;;;3.45;1.40;;;19.00;60.90;;;;;;5010769;28;20145;-60